Time;durP1;ratioP1;P1;durP2;ratioP2;P2;SDS_P1;SDS_P2;PMS_P1;PMS_P2;Temp;Humidity;BMP_temperature;BMP_pressure;BME280_temperature;BME280_humidity;BME280_pressure;Samples;Min_cycle;Max_cycle;Signal;HPM_P1;HPM_P2
2023/03/14 00:01:56;;;;;;;11.67;8.87;;;;;;;6.01;56.19;95089.47;5032751;28;20449;-73
2023/03/14 00:04:23;;;;;;;19.27;9.13;;;;;;;6.03;57.49;95085.00;5032287;28;20887;-73
2023/03/14 00:06:50;;;;;;;25.87;10.97;;;;;;;6.06;57.68;95082.19;5031926;28;20985;-73
2023/03/14 00:09:17;;;;;;;16.53;12.07;;;;;;;6.17;57.53;95074.53;5032113;28;20454;-73
2023/03/14 00:11:45;;;;;;;23.57;14.07;;;;;;;6.26;57.22;95067.91;5032245;28;20454;-72
2023/03/14 00:14:12;;;;;;;24.73;14.67;;;;;;;6.25;57.35;95041.00;5032317;28;20449;-73
2023/03/14 00:16:39;;;;;;;30.80;15.50;;;;;;;6.39;58.11;95053.16;5032156;28;20442;-73
2023/03/14 00:19:06;;;;;;;20.57;12.23;;;;;;;6.45;57.44;95040.53;5032205;28;20458;-73
2023/03/14 00:21:33;;;;;;;16.03;10.77;;;;;;;6.51;56.63;95047.94;5032170;28;20442;-73
2023/03/14 00:24:00;;;;;;;21.00;11.40;;;;;;;6.48;57.21;95047.31;5031780;28;20508;-73
2023/03/14 00:26:26;;;;;;;31.53;11.97;;;;;;;6.49;57.29;95039.38;5031930;28;20486;-74
2023/03/14 00:28:55;;;;;;;19.70;11.20;;;;;;;6.45;56.20;95037.09;5032040;28;20930;-73
2023/03/14 00:31:22;;;;;;;16.77;9.57;;;;;;;6.39;57.47;95021.88;5032050;28;20442;-71
2023/03/14 00:33:49;;;;;;;16.33;7.50;;;;;;;6.15;58.29;95017.31;5031735;28;20450;-72
2023/03/14 00:36:17;;;;;;;9.97;6.90;;;;;;;5.85;57.82;95016.69;5031822;28;20450;-74
2023/03/14 00:38:46;;;;;;;12.53;7.90;;;;;;;5.69;59.09;95002.97;5032121;28;20450;-73
2023/03/14 00:41:14;;;;;;;9.70;6.97;;;;;;;5.62;59.69;94996.47;4997142;28;20446;-72
2023/03/14 00:43:41;;;;;;;7.30;6.17;;;;;;;5.63;59.61;94996.38;5031998;28;20507;-73
2023/03/14 00:46:09;;;;;;;7.63;5.93;;;;;;;5.73;59.47;95001.81;5031787;28;20474;-72
2023/03/14 00:48:36;;;;;;;7.17;6.47;;;;;;;5.79;59.80;95004.91;5031823;28;20446;-73
2023/03/14 00:51:05;;;;;;;20.47;6.63;;;;;;;5.87;60.13;95005.22;5031836;28;20859;-73
2023/03/14 00:53:35;;;;;;;7.93;6.27;;;;;;;5.96;58.47;95003.81;5032280;28;20521;-73
2023/03/14 00:56:04;;;;;;;10.80;6.53;;;;;;;6.03;59.94;94994.66;5031915;28;20450;-72
2023/03/14 00:58:31;;;;;;;9.60;6.40;;;;;;;6.12;57.52;94999.31;5031546;28;20526;-74
2023/03/14 01:00:58;;;;;;;10.70;7.60;;;;;;;6.04;56.65;95004.16;5031706;28;20476;-72
2023/03/14 01:03:26;;;;;;;14.67;8.57;;;;;;;5.87;58.80;95007.84;4996901;28;20864;-73
2023/03/14 01:05:53;;;;;;;20.83;12.63;;;;;;;5.51;61.37;95016.22;5031869;28;20526;-72
2023/03/14 01:08:19;;;;;;;23.10;13.80;;;;;;;5.13;62.20;95010.78;5031631;28;20485;-72
2023/03/14 01:10:46;;;;;;;23.20;14.37;;;;;;;4.94;63.75;95003.28;5031651;28;20443;-72
2023/03/14 01:13:13;;;;;;;18.47;11.80;;;;;;;4.92;63.80;94999.97;5031470;28;20446;-73
2023/03/14 01:15:40;;;;;;;18.83;12.10;;;;;;;4.85;64.04;94992.59;5031646;28;20446;-72
2023/03/14 01:18:06;;;;;;;15.87;12.00;;;;;;;4.86;64.00;94992.50;5013414;28;20437;-73
2023/03/14 01:20:34;;;;;;;18.53;12.40;;;;;;;4.85;63.44;94992.59;5035239;28;20988;-72
2023/03/14 01:23:01;;;;;;;16.53;11.40;;;;;;;4.94;63.27;94997.25;5035221;28;20442;-74
2023/03/14 01:25:28;;;;;;;18.70;12.10;;;;;;;4.95;64.40;94989.38;5034704;28;20836;-73
2023/03/14 01:27:55;;;;;;;11.67;8.43;;;;;;;5.01;61.80;94976.91;5034874;28;20551;-73
2023/03/14 01:30:21;;;;;;;19.80;11.80;;;;;;;5.07;63.71;94971.31;5034725;28;20548;-74
2023/03/14 01:32:48;;;;;;;18.03;11.43;;;;;;;5.18;63.25;94971.47;5034855;28;20457;-73
2023/03/14 01:35:15;;;;;;;14.37;10.80;;;;;;;5.19;61.70;94978.34;5034746;28;20469;-73
2023/03/14 01:37:43;;;;;;;17.73;11.93;;;;;;;5.10;61.54;94966.75;5035199;28;20442;-72
2023/03/14 01:40:13;;;;;;;23.43;11.70;;;;;;;5.12;62.65;94958.88;5034900;28;20438;-73
2023/03/14 01:42:46;;;;;;;19.73;13.30;;;;;;;5.05;62.28;94957.59;5034984;28;20528;-71
2023/03/14 01:45:46;;;;;;;33.83;19.27;;;;;;;5.12;62.32;94961.47;5034716;28;20503;-72
2023/03/14 01:48:12;;;;;;;40.47;19.97;;;;;;;5.18;61.88;94958.47;5034367;28;20493;-74
2023/03/14 01:50:39;;;;;;;53.07;20.13;;;;;;;5.23;61.71;94956.44;5034523;28;20446;-73
2023/03/14 01:53:08;;;;;;;31.03;16.87;;;;;;;5.28;61.93;94957.00;5034707;28;20448;-74
2023/03/14 01:55:35;;;;;;;21.03;13.73;;;;;;;5.25;61.54;94944.19;5034509;28;20447;-72
2023/03/14 01:58:05;;;;;;;15.73;10.53;;;;;;;5.31;61.12;94948.16;5034792;28;20445;-73
2023/03/14 02:00:31;;;;;;;13.60;10.40;;;;;;;5.32;61.67;94949.81;5034608;28;20876;-73
2023/03/14 02:03:03;;;;;;;15.63;10.27;;;;;;;5.28;61.94;94946.59;5034708;28;20522;-72
2023/03/14 02:05:33;;;;;;;13.60;8.70;;;;;;;5.23;61.04;94949.47;5034453;28;20452;-72
2023/03/14 02:08:03;;;;;;;9.70;8.63;;;;;;;5.19;60.93;94947.97;5034293;28;20490;-73
2023/03/14 02:10:35;;;;;;;7.77;6.30;;;;;;;5.14;60.69;94952.63;5034407;28;20450;-74
2023/03/14 02:13:04;;;;;;;8.33;6.00;;;;;;;4.98;60.12;94950.16;5034440;28;20504;-73
2023/03/14 02:15:32;;;;;;;9.50;6.53;;;;;;;4.93;60.51;94954.81;5034315;28;20500;-73
2023/03/14 02:18:00;;;;;;;8.20;6.20;;;;;;;4.92;61.04;94950.56;5033942;28;20446;-72
2023/03/14 02:20:35;;;;;;;14.43;7.90;;;;;;;4.94;62.13;94948.69;5033900;28;20460;-74
2023/03/14 02:23:02;;;;;;;6.67;5.73;;;;;;;4.95;60.42;94947.75;5034634;28;20449;-74
2023/03/14 02:25:40;;;;;;;5.93;5.33;;;;;;;4.98;61.39;94944.97;5033950;28;20435;-74
2023/03/14 02:28:09;;;;;;;8.60;5.43;;;;;;;5.03;61.15;94933.44;5034245;28;20496;-74
2023/03/14 02:30:36;;;;;;;10.23;6.63;;;;;;;5.07;60.12;94935.75;5032874;28;20447;-75
2023/03/14 02:33:06;;;;;;;7.07;5.70;;;;;;;5.10;60.28;94947.72;5033803;28;20921;-74
2023/03/14 02:35:36;;;;;;;6.77;6.07;;;;;;;5.14;60.95;94933.59;5033964;28;20482;-72
2023/03/14 02:38:11;;;;;;;11.83;7.10;;;;;;;5.19;61.08;94936.72;5033769;28;20443;-73
2023/03/14 02:40:37;;;;;;;10.93;7.63;;;;;;;5.18;61.25;94935.06;5033863;28;20449;-73
2023/03/14 02:43:04;;;;;;;7.20;5.87;;;;;;;5.15;60.29;94940.47;5033505;28;20820;-73
2023/03/14 02:45:42;;;;;;;13.17;6.50;;;;;;;5.09;61.91;94941.69;5033451;28;20442;-73
2023/03/14 02:48:14;;;;;;;7.97;6.10;;;;;;;5.05;62.25;94941.97;5033592;28;20995;-72
2023/03/14 02:50:41;;;;;;;7.97;6.60;;;;;;;4.93;61.04;94944.44;5033463;28;20442;-73
2023/03/14 02:53:09;;;;;;;9.73;7.13;;;;;;;4.89;61.55;94942.09;5033533;28;20442;-74
2023/03/14 02:55:36;;;;;;;10.80;6.70;;;;;;;4.95;61.88;94947.75;5033253;28;20438;-72
2023/03/14 02:58:02;;;;;;;9.90;7.17;;;;;;;5.00;62.00;94949.25;5033311;28;20446;-74
2023/03/14 03:00:30;;;;;;;9.37;7.70;;;;;;;5.08;61.24;94949.59;5033601;28;20443;-73
2023/03/14 03:02:58;;;;;;;8.10;6.83;;;;;;;5.15;61.02;94953.47;5033447;28;20512;-72
2023/03/14 03:05:25;;;;;;;14.17;6.93;;;;;;;5.20;61.80;94957.47;5033193;28;20446;-72
2023/03/14 03:07:52;;;;;;;8.10;5.80;;;;;;;5.18;62.06;94958.47;4998438;28;20482;-74
2023/03/14 03:10:19;;;;;;;11.77;6.83;;;;;;;5.17;62.50;94955.03;5033058;28;20987;-74
2023/03/14 03:12:45;;;;;;;15.17;7.17;;;;;;;5.19;61.87;94954.94;5033410;28;20488;-74
2023/03/14 03:15:12;;;;;;;8.20;6.40;;;;;;;5.22;62.29;94954.78;5033182;28;20880;-73
2023/03/14 03:17:39;;;;;;;10.53;6.90;;;;;;;5.18;62.81;94951.50;4998193;28;20450;-73
2023/03/14 03:20:09;;;;;;;10.10;6.03;;;;;;;5.18;63.92;94948.06;4998408;28;20504;-73
2023/03/14 03:22:36;;;;;;;6.70;6.10;;;;;;;5.17;62.62;94944.63;5032934;28;20461;-74
2023/03/14 03:25:03;;;;;;;7.43;6.53;;;;;;;5.21;63.36;94950.50;5032664;28;20473;-74
2023/03/14 03:27:31;;;;;;;7.57;6.77;;;;;;;5.16;62.58;94955.13;5032651;28;20485;-73
2023/03/14 03:29:58;;;;;;;7.50;6.63;;;;;;;5.10;62.97;94948.56;5033221;28;20448;-73
2023/03/14 03:32:25;;;;;;;9.67;5.67;;;;;;;5.04;63.50;94937.72;5036029;28;20457;-73
2023/03/14 03:34:52;;;;;;;9.50;6.40;;;;;;;5.03;64.30;94955.09;5038400;28;20544;-74
2023/03/14 03:37:20;;;;;;;10.80;6.73;;;;;;;5.01;65.09;94948.31;5033198;28;20529;-74
2023/03/14 03:39:47;;;;;;;8.60;6.30;;;;;;;5.02;64.11;94939.56;5033350;28;20441;-73
2023/03/14 03:42:14;;;;;;;7.73;5.90;;;;;;;5.05;65.61;94939.38;5032769;28;20840;-74
2023/03/14 03:44:41;;;;;;;9.00;6.50;;;;;;;5.09;65.36;94949.50;5049401;28;20441;-73
2023/03/14 03:47:07;;;;;;;9.63;7.33;;;;;;;5.16;64.92;94949.94;5030669;28;20446;-72
2023/03/14 03:49:34;;;;;;;10.60;7.17;;;;;;;5.21;67.01;94948.75;5033016;28;20442;-72
2023/03/14 03:52:01;;;;;;;15.67;7.00;;;;;;;5.24;66.75;94955.50;4998265;28;20450;-73
2023/03/14 03:54:29;;;;;;;10.90;7.43;;;;;;;5.22;64.43;94959.97;5032688;28;20446;-74
2023/03/14 03:56:56;;;;;;;9.40;7.10;;;;;;;5.27;64.40;94957.91;5032963;28;20449;-73
2023/03/14 03:59:23;;;;;;;13.23;7.67;;;;;;;5.28;64.56;94957.00;5033061;28;20952;-73
2023/03/14 04:01:50;;;;;;;9.70;6.63;;;;;;;5.30;63.90;94968.13;5033219;28;20438;-73
2023/03/14 04:04:16;;;;;;;9.90;7.47;;;;;;;5.25;63.68;94965.00;5032753;28;20910;-73
2023/03/14 04:06:43;;;;;;;9.87;7.40;;;;;;;5.04;65.25;94961.94;5032693;28;20447;-73
2023/03/14 04:09:10;;;;;;;8.90;6.63;;;;;;;4.94;64.58;94966.91;5033112;28;20486;-73
2023/03/14 04:11:39;;;;;;;7.90;6.93;;;;;;;4.83;65.93;94963.25;5032553;28;20461;-73
2023/03/14 04:14:06;;;;;;;8.53;6.33;;;;;;;4.75;66.35;94971.53;5032860;28;20446;-72
2023/03/14 04:16:32;;;;;;;6.97;6.30;;;;;;;4.64;67.19;94960.97;5032541;28;20857;-74
2023/03/14 04:18:59;;;;;;;5.77;5.27;;;;;;;4.54;68.25;94955.47;5032617;28;20878;-72
2023/03/14 04:21:26;;;;;;;9.70;6.27;;;;;;;4.54;68.18;94959.84;5032335;28;21007;-73
2023/03/14 04:23:53;;;;;;;7.13;6.33;;;;;;;4.57;68.04;94949.25;5032582;28;20933;-72
2023/03/14 04:26:20;;;;;;;7.57;6.20;;;;;;;4.60;68.02;94938.66;5032811;28;20450;-71
2023/03/14 04:28:48;;;;;;;9.37;6.50;;;;;;;4.58;67.57;94943.13;5036224;28;20499;-72
2023/03/14 04:31:16;;;;;;;9.47;6.83;;;;;;;4.61;68.87;94937.75;5052582;28;20441;-73
2023/03/14 04:33:43;;;;;;;11.80;7.70;;;;;;;4.60;66.99;94934.31;5052051;28;20449;-73
2023/03/14 04:36:10;;;;;;;11.50;7.00;;;;;;;4.58;67.67;94930.13;5052375;28;20928;-72
2023/03/14 04:38:37;;;;;;;8.80;7.07;;;;;;;4.57;67.42;94923.25;5052169;28;20445;-69
2023/03/14 04:41:04;;;;;;;6.03;5.43;;;;;;;4.53;68.99;94922.63;5052317;28;20433;-71
2023/03/14 04:43:31;;;;;;;7.97;6.37;;;;;;;4.53;67.65;94914.81;5051270;28;20452;-73
2023/03/14 04:45:59;;;;;;;9.37;6.77;;;;;;;4.50;67.32;94914.19;5051859;28;20437;-72
2023/03/14 04:48:27;;;;;;;8.83;6.43;;;;;;;4.61;66.92;94916.94;5052196;28;20543;-73
2023/03/14 04:50:54;;;;;;;8.47;6.73;;;;;;;4.68;66.13;94915.66;5052314;28;20485;-73
2023/03/14 04:53:21;;;;;;;23.10;8.23;;;;;;;4.71;67.05;94910.28;5052718;28;20448;-72
2023/03/14 04:55:52;;;;;;;8.03;6.80;;;;;;;4.73;67.10;94913.63;5056260;28;20510;-73
2023/03/14 04:58:19;;;;;;;11.23;6.30;;;;;;;4.77;67.10;94909.91;5055987;28;20982;-72
2023/03/14 05:00:46;;;;;;;12.90;7.30;;;;;;;4.83;67.27;94908.69;5056095;28;20445;-73
2023/03/14 05:03:15;;;;;;;9.60;7.30;;;;;;;4.84;66.36;94911.19;5055889;28;20456;-73
2023/03/14 05:05:42;;;;;;;7.73;6.93;;;;;;;4.88;65.64;94904.84;5055941;28;20494;-74
2023/03/14 05:08:09;;;;;;;13.43;7.67;;;;;;;4.82;66.63;94905.25;5056080;28;20550;-73
2023/03/14 05:10:36;;;;;;;7.00;6.40;;;;;;;4.71;65.94;94910.28;5055733;28;20452;-72
2023/03/14 05:13:03;;;;;;;21.03;8.97;;;;;;;4.63;67.47;94915.13;5040749;28;20471;-74
2023/03/14 05:15:30;;;;;;;12.67;9.33;;;;;;;4.45;67.90;94918.81;5035463;28;20446;-74
2023/03/14 05:17:57;;;;;;;21.03;12.00;;;;;;;4.34;68.47;94914.28;5035927;28;20811;-71
2023/03/14 05:20:25;;;;;;;17.03;13.00;;;;;;;4.43;68.68;94912.88;5016843;28;20426;-75
2023/03/14 05:22:52;;;;;;;18.37;11.53;;;;;;;4.54;69.17;94920.84;5035219;28;20458;-75
2023/03/14 05:25:19;;;;;;;19.43;11.70;;;;;;;4.72;71.26;94916.31;5035170;28;20460;-71
2023/03/14 05:27:45;;;;;;;14.03;12.07;;;;;;;5.22;73.47;94920.97;5035155;28;20796;-74
2023/03/14 05:30:13;;;;;;;18.77;11.00;;;;;;;5.50;65.43;94912.22;5035158;28;20933;-72
2023/03/14 05:32:40;;;;;;;21.67;10.60;;;;;;;5.67;66.58;94924.13;5000462;28;20461;-73
2023/03/14 05:35:07;;;;;;;29.10;10.43;;;;;;;6.12;67.84;94918.53;5035021;28;20824;-71
2023/03/14 05:37:35;;;;;;;19.53;9.33;;;;;;;6.94;66.14;94904.22;5035491;28;20465;-72
2023/03/14 05:40:02;;;;;;;21.27;9.73;;;;;;;7.82;57.93;94906.59;5035468;28;20454;-75
2023/03/14 05:42:29;;;;;;;13.73;8.37;;;;;;;8.43;61.21;94908.09;5035304;28;20947;-73
2023/03/14 05:44:56;;;;;;;23.17;8.40;;;;;;;8.98;59.50;94904.66;5035367;28;20450;-72
2023/03/14 05:47:23;;;;;;;13.63;9.17;;;;;;;9.53;56.17;94902.03;5039804;28;20463;-75
2023/03/14 05:49:49;;;;;;;23.53;8.73;;;;;;;10.04;49.35;94914.50;5035530;28;20485;-74
2023/03/14 05:52:16;;;;;;;23.00;8.83;;;;;;;10.51;49.05;94908.78;5054437;28;20501;-73
2023/03/14 05:54:44;;;;;;;14.20;8.47;;;;;;;10.73;47.79;94906.97;5055265;28;20450;-73
2023/03/14 05:57:11;;;;;;;19.13;10.00;;;;;;;10.67;49.78;94902.22;5053640;28;20466;-73
2023/03/14 05:59:38;;;;;;;15.63;9.93;;;;;;;10.57;47.17;94888.22;5035668;28;20832;-72
2023/03/14 06:02:05;;;;;;;12.70;8.97;;;;;;;10.55;46.75;94904.09;5019162;28;20445;-72
2023/03/14 06:04:31;;;;;;;10.87;8.60;;;;;;;10.74;47.59;94909.47;5054200;28;20985;-71
2023/03/14 06:06:58;;;;;;;18.77;10.93;;;;;;;10.18;46.54;94906.31;5053922;28;20446;-73
2023/03/14 06:09:25;;;;;;;11.03;9.53;;;;;;;10.25;47.93;94904.88;5054087;28;20481;-73
2023/03/14 06:11:53;;;;;;;14.50;9.23;;;;;;;9.79;47.56;94903.38;5054615;28;20503;-73
2023/03/14 06:14:20;;;;;;;12.80;9.97;;;;;;;9.65;47.53;94908.94;5054039;28;20506;-73
2023/03/14 06:16:48;;;;;;;22.30;9.20;;;;;;;9.91;52.30;94902.41;5041766;28;20441;-73
2023/03/14 06:19:15;;;;;;;15.60;9.50;;;;;;;9.84;48.58;94903.88;5034038;28;20890;-73
2023/03/14 06:21:42;;;;;;;11.23;8.33;;;;;;;10.10;51.28;94903.50;5034399;28;20515;-73
2023/03/14 06:24:09;;;;;;;17.30;10.67;;;;;;;10.43;49.33;94894.66;4999295;28;20507;-73
2023/03/14 06:26:36;;;;;;;16.67;10.23;;;;;;;10.53;48.90;94903.41;5033829;28;20902;-72
2023/03/14 06:29:04;;;;;;;11.80;10.13;;;;;;;10.46;48.81;94899.66;5033818;28;20485;-70
2023/03/14 06:31:32;;;;;;;13.00;11.07;;;;;;;10.29;47.77;94895.78;4998744;28;20863;-73
2023/03/14 06:33:59;;;;;;;14.13;9.93;;;;;;;10.19;50.66;94902.75;5033185;28;20474;-72
2023/03/14 06:36:26;;;;;;;15.10;9.17;;;;;;;10.41;54.19;94897.41;5033669;28;20441;-72
2023/03/14 06:38:53;;;;;;;16.23;10.27;;;;;;;10.81;48.99;94907.16;5033368;28;20504;-73
2023/03/14 06:41:19;;;;;;;20.77;11.10;;;;;;;10.94;47.53;94905.13;5033635;28;20452;-73
2023/03/14 06:43:46;;;;;;;22.83;10.90;;;;;;;10.91;46.02;94902.75;5033329;28;20446;-71
2023/03/14 06:46:15;;;;;;;17.57;11.43;;;;;;;10.83;48.45;94902.59;4998649;28;20461;-73
2023/03/14 06:48:42;;;;;;;21.53;9.90;;;;;;;10.58;46.71;94887.28;5033354;28;20527;-72
2023/03/14 06:51:08;;;;;;;17.50;10.80;;;;;;;10.85;47.59;94884.91;5033222;28;20867;-73
2023/03/14 06:53:35;;;;;;;14.30;10.57;;;;;;;10.90;45.95;94887.13;5033510;28;20535;-72
2023/03/14 06:56:02;;;;;;;15.63;10.00;;;;;;;11.16;45.86;94883.09;5033264;28;20497;-73
2023/03/14 06:58:29;;;;;;;15.73;9.90;;;;;;;11.61;46.18;94882.66;5033597;28;20451;-73
2023/03/14 07:00:56;;;;;;;13.93;10.20;;;;;;;11.77;43.51;94872.41;5014554;28;20484;-73
2023/03/14 07:03:24;;;;;;;19.80;10.40;;;;;;;11.76;43.53;94876.84;5033177;28;20451;-72
2023/03/14 07:05:51;;;;;;;16.00;9.10;;;;;;;11.91;44.05;94868.59;5032995;28;20443;-72
2023/03/14 07:08:18;;;;;;;12.13;8.60;;;;;;;11.93;43.28;94869.28;5032821;28;20580;-74
2023/03/14 07:10:45;;;;;;;14.43;9.53;;;;;;;11.56;44.73;94862.00;5033474;28;20450;-73
2023/03/14 07:13:12;;;;;;;23.20;11.40;;;;;;;10.98;44.19;94875.00;5033069;28;20434;-73
2023/03/14 07:15:38;;;;;;;12.13;9.90;;;;;;;10.17;47.06;94860.91;5032490;28;20492;-72
2023/03/14 07:18:05;;;;;;;13.67;9.20;;;;;;;10.24;46.27;94851.59;5032892;28;20520;-73
2023/03/14 07:20:33;;;;;;;15.67;10.30;;;;;;;10.73;46.75;94849.25;5032574;28;20458;-73
2023/03/14 07:23:02;;;;;;;14.93;10.03;;;;;;;10.64;45.29;94855.25;5032921;28;20508;-73
2023/03/14 07:25:29;;;;;;;16.10;9.43;;;;;;;10.74;45.63;94853.53;5032620;28;20439;-72
2023/03/14 07:27:56;;;;;;;10.23;8.63;;;;;;;10.78;44.28;94854.91;5032806;28;20446;-72
2023/03/14 07:30:23;;;;;;;10.27;8.47;;;;;;;10.87;44.01;94851.47;5032557;28;20489;-73
2023/03/14 07:32:49;;;;;;;8.10;7.30;;;;;;;11.07;48.28;94853.22;5032539;28;20514;-73
2023/03/14 07:35:16;;;;;;;9.20;8.10;;;;;;;11.16;43.46;94849.78;5032504;28;20477;-73
2023/03/14 07:37:44;;;;;;;10.27;8.10;;;;;;;11.01;45.60;94843.25;5032355;28;20441;-73
2023/03/14 07:40:14;;;;;;;10.10;8.07;;;;;;;11.00;43.61;94838.16;5032331;28;20451;-73
2023/03/14 07:42:41;;;;;;;9.83;8.53;;;;;;;11.24;44.11;94837.75;5032577;28;20469;-72
2023/03/14 07:45:09;;;;;;;12.00;9.37;;;;;;;11.64;43.80;94835.91;5032527;28;20446;-71
2023/03/14 07:47:36;;;;;;;14.83;8.70;;;;;;;11.75;42.18;94832.28;5032206;28;20801;-72
2023/03/14 07:50:03;;;;;;;11.80;8.70;;;;;;;11.83;43.06;94829.00;5032336;28;20996;-73
2023/03/14 07:52:30;;;;;;;18.17;9.73;;;;;;;11.79;42.20;94808.22;5032278;28;20841;-71
2023/03/14 07:54:58;;;;;;;11.37;9.27;;;;;;;12.03;43.34;94828.00;5032335;28;20439;-73
2023/03/14 07:57:25;;;;;;;24.77;13.00;;;;;;;12.22;43.31;94825.34;5032066;28;20838;-73
2023/03/14 07:59:52;;;;;;;35.20;12.17;;;;;;;11.80;43.13;94822.22;5032336;28;20453;-73
2023/03/14 08:02:22;;;;;;;19.43;12.70;;;;;;;11.66;44.90;94818.19;5032254;28;20538;-73
2023/03/14 08:04:48;;;;;;;27.87;12.97;;;;;;;11.56;45.10;94827.00;5032160;28;20446;-73
2023/03/14 08:07:15;;;;;;;21.53;12.70;;;;;;;11.45;45.71;94823.56;5032171;28;20868;-73
2023/03/14 08:09:42;;;;;;;20.03;11.90;;;;;;;11.48;45.54;94822.44;5031978;28;20489;-72
2023/03/14 08:12:10;;;;;;;19.87;13.17;;;;;;;11.55;44.67;94812.22;5032128;28;20462;-72
2023/03/14 08:14:37;;;;;;;17.63;12.30;;;;;;;11.69;44.23;94822.34;4997252;28;20457;-74
2023/03/14 08:17:05;;;;;;;16.63;11.40;;;;;;;11.45;43.98;94825.34;4997211;28;20454;-73
2023/03/14 08:19:31;;;;;;;22.37;10.90;;;;;;;11.79;45.85;94812.66;5032256;28;20446;-70
2023/03/14 08:21:58;;;;;;;16.37;12.70;;;;;;;12.17;48.09;94814.44;5032109;28;20442;-72
2023/03/14 08:24:25;;;;;;;17.33;12.87;;;;;;;12.21;44.07;94812.34;5032063;28;20438;-73
2023/03/14 08:26:51;;;;;;;18.37;12.07;;;;;;;12.51;44.10;94813.94;5031982;28;20455;-72
2023/03/14 08:29:20;;;;;;;20.27;13.83;;;;;;;12.70;41.82;94819.09;5035953;28;20494;-73
2023/03/14 08:31:48;;;;;;;23.43;12.27;;;;;;;12.89;42.20;94812.94;5036166;28;20852;-73
2023/03/14 08:34:15;;;;;;;12.90;10.93;;;;;;;13.15;42.75;94807.81;5035915;28;20488;-73
2023/03/14 08:36:42;;;;;;;20.87;12.33;;;;;;;13.33;42.13;94813.97;5035961;28;20446;-73
2023/03/14 08:39:09;;;;;;;18.87;12.37;;;;;;;13.32;40.31;94805.25;5036491;28;20858;-73
2023/03/14 08:41:40;;;;;;;19.97;13.17;;;;;;;13.27;39.25;94801.38;5035623;28;20489;-73
2023/03/14 08:44:06;;;;;;;19.70;11.03;;;;;;;13.19;41.07;94798.66;5036142;28;20989;-73
2023/03/14 08:46:35;;;;;;;18.20;10.83;;;;;;;13.33;40.71;94792.91;5035773;28;20811;-73
2023/03/14 08:49:01;;;;;;;14.00;10.07;;;;;;;13.36;39.61;94792.59;5035436;28;20484;-73
2023/03/14 08:51:28;;;;;;;11.80;10.33;;;;;;;13.49;42.06;94781.69;5035776;28;20816;-73
2023/03/14 08:53:55;;;;;;;16.40;12.03;;;;;;;13.71;39.47;94783.03;5035830;28;20506;-73
2023/03/14 08:56:22;;;;;;;16.57;10.27;;;;;;;13.79;39.07;94775.19;5017276;28;20853;-74
2023/03/14 08:58:48;;;;;;;18.80;11.03;;;;;;;13.54;39.27;94769.69;5035569;28;20521;-72
2023/03/14 09:01:15;;;;;;;15.27;11.47;;;;;;;13.66;38.07;94769.47;5035693;28;20447;-73
2023/03/14 09:03:43;;;;;;;16.07;11.30;;;;;;;13.48;38.83;94766.84;5035831;28;20444;-73
2023/03/14 09:06:11;;;;;;;12.60;9.70;;;;;;;13.70;39.00;94766.38;5035829;28;20436;-73
2023/03/14 09:08:38;;;;;;;14.13;9.10;;;;;;;13.68;36.90;94752.53;5035185;28;20455;-73
2023/03/14 09:11:08;;;;;;;10.10;8.90;;;;;;;13.68;37.13;94751.69;5035176;28;20459;-73
2023/03/14 09:13:35;;;;;;;12.80;8.53;;;;;;;13.25;37.04;94743.56;5035210;28;20522;-73
2023/03/14 09:16:02;;;;;;;23.67;10.40;;;;;;;13.55;38.54;94737.06;5035550;28;20448;-73
2023/03/14 09:18:29;;;;;;;11.43;9.40;;;;;;;13.66;38.04;94737.84;5035567;28;20456;-72
2023/03/14 09:20:57;;;;;;;9.97;8.10;;;;;;;13.59;36.83;94727.09;5035214;28;20455;-72
2023/03/14 09:23:24;;;;;;;13.93;8.83;;;;;;;13.41;37.65;94724.44;5035048;28;20452;-73
2023/03/14 09:25:55;;;;;;;12.87;9.80;;;;;;;13.21;37.65;94718.50;5035264;28;20440;-73
2023/03/14 09:28:22;;;;;;;10.83;8.80;;;;;;;13.25;40.16;94714.56;5035266;28;20436;-72
2023/03/14 09:30:49;;;;;;;10.43;8.40;;;;;;;13.41;39.64;94706.00;5034915;28;20821;-72
2023/03/14 09:33:16;;;;;;;10.97;8.50;;;;;;;13.24;38.09;94696.28;5016158;28;20956;-73
2023/03/14 09:35:43;;;;;;;11.80;8.23;;;;;;;13.54;38.99;94693.25;5034728;28;20534;-73
2023/03/14 09:38:11;;;;;;;11.77;8.10;;;;;;;13.43;38.64;94682.13;5034829;28;20521;-72
2023/03/14 09:40:39;;;;;;;14.40;8.00;;;;;;;13.04;38.84;94685.03;5034319;28;20444;-73
2023/03/14 09:43:06;;;;;;;13.13;9.47;;;;;;;12.80;40.48;94685.63;5034525;28;20525;-72
2023/03/14 09:45:36;;;;;;;14.13;8.90;;;;;;;12.65;40.37;94681.81;4999547;28;20508;-72
2023/03/14 09:48:04;;;;;;;11.67;8.03;;;;;;;12.73;41.06;94683.75;5034777;28;20446;-72
2023/03/14 09:50:37;;;;;;;10.37;7.23;;;;;;;12.69;41.44;94668.22;5034154;28;20487;-73
2023/03/14 09:53:08;;;;;;;11.57;7.50;;;;;;;12.81;42.54;94660.94;5034531;28;20537;-72
2023/03/14 09:55:36;;;;;;;8.83;6.80;;;;;;;13.02;42.76;94648.31;5034754;28;20451;-72
2023/03/14 09:58:11;;;;;;;8.17;7.37;;;;;;;13.09;41.71;94647.72;5034418;28;20489;-72
2023/03/14 10:00:38;;;;;;;8.63;7.50;;;;;;;13.15;41.42;94633.94;5034321;28;20934;-73
2023/03/14 10:03:22;;;;;;;11.70;6.70;;;;;;;12.90;42.58;94638.97;5034267;28;20455;-73
2023/03/14 10:05:49;;;;;;;7.13;6.43;;;;;;;13.12;42.76;94639.50;5034375;28;20501;-72
2023/03/14 10:08:16;;;;;;;14.83;6.40;;;;;;;13.31;42.84;94628.84;5034342;28;20447;-73
2023/03/14 10:10:44;;;;;;;14.30;7.43;;;;;;;13.56;43.38;94628.00;5034349;28;20481;-72
2023/03/14 10:13:17;;;;;;;9.27;6.37;;;;;;;13.55;41.83;94628.16;5034170;28;20449;-73
2023/03/14 10:15:49;;;;;;;8.93;6.60;;;;;;;13.37;41.41;94614.22;5034311;28;20534;-72
2023/03/14 10:18:16;;;;;;;11.67;6.43;;;;;;;13.50;42.34;94623.34;5034409;28;20452;-71
2023/03/14 10:20:44;;;;;;;9.80;6.40;;;;;;;13.66;42.52;94613.91;4998926;28;20458;-72
2023/03/14 10:23:25;;;;;;;10.40;6.80;;;;;;;13.70;42.15;94596.78;5034080;28;20449;-73
2023/03/14 10:26:05;;;;;;;7.40;6.57;;;;;;;13.74;42.72;94595.50;5034217;28;20499;-73
2023/03/14 10:28:34;;;;;;;9.60;7.47;;;;;;;13.75;41.72;94584.78;5034064;28;20801;-72
2023/03/14 10:31:01;;;;;;;6.23;5.70;;;;;;;13.85;42.45;94572.31;5033749;28;20488;-70
2023/03/14 10:33:31;;;;;;;7.00;4.70;;;;;;;13.97;41.51;94577.31;5033824;28;20460;-73
2023/03/14 10:36:00;;;;;;;9.37;5.87;;;;;;;14.11;41.63;94569.59;5033871;28;20476;-73
2023/03/14 10:38:29;;;;;;;5.80;4.93;;;;;;;14.29;41.97;94556.31;5033538;28;20472;-73
2023/03/14 10:40:58;;;;;;;23.07;6.33;;;;;;;14.40;39.33;94550.72;4998548;28;20445;-73
2023/03/14 10:43:29;;;;;;;9.20;5.23;;;;;;;14.49;40.16;94541.06;5033802;28;20455;-72
2023/03/14 10:45:57;;;;;;;5.47;4.97;;;;;;;14.59;40.92;94531.16;5015114;28;20963;-73
2023/03/14 10:48:31;;;;;;;5.40;3.90;;;;;;;14.72;40.58;94530.69;5033517;28;20443;-73
2023/03/14 10:51:03;;;;;;;4.73;3.93;;;;;;;14.76;39.99;94519.66;5032642;28;20577;-73
2023/03/14 10:53:35;;;;;;;5.63;4.13;;;;;;;14.70;38.24;94517.63;5033910;28;20508;-73
2023/03/14 10:56:04;;;;;;;4.53;3.90;;;;;;;14.67;38.80;94510.03;5033778;28;20440;-73
2023/03/14 10:58:38;;;;;;;4.03;3.63;;;;;;;14.65;39.86;94498.81;5033627;28;20446;-73
2023/03/14 11:01:18;;;;;;;4.40;3.67;;;;;;;14.72;39.65;94491.06;5033634;28;20449;-72
2023/03/14 11:03:53;;;;;;;7.03;4.23;;;;;;;14.64;39.19;94486.59;5033468;28;20945;-72
2023/03/14 11:06:25;;;;;;;12.73;5.03;;;;;;;14.68;38.96;94477.34;5033314;28;20446;-73
2023/03/14 11:08:58;;;;;;;4.30;3.63;;;;;;;14.62;38.50;94467.47;4999327;28;20446;-72
2023/03/14 11:11:28;;;;;;;8.43;4.63;;;;;;;14.73;41.84;94466.28;5033515;28;20564;-73
2023/03/14 11:14:08;;;;;;;4.53;4.13;;;;;;;14.85;40.36;94457.06;5033011;28;21009;-72
2023/03/14 11:16:47;;;;;;;6.13;4.77;;;;;;;14.96;39.64;94453.25;5033378;28;20451;-73
2023/03/14 11:19:27;;;;;;;6.37;5.00;;;;;;;15.02;39.01;94447.28;5033059;28;20447;-72
2023/03/14 11:22:00;;;;;;;7.27;4.70;;;;;;;15.12;38.04;94440.00;5033798;28;20858;-73
2023/03/14 11:24:48;;;;;;;5.10;4.57;;;;;;;15.19;39.89;94438.34;5032846;28;20439;-73
2023/03/14 11:27:18;;;;;;;5.30;4.73;;;;;;;15.26;39.85;94430.53;5032709;28;20859;-73
2023/03/14 11:29:55;;;;;;;4.63;3.97;;;;;;;15.32;38.31;94416.66;5033098;28;20840;-73
2023/03/14 11:32:36;;;;;;;5.83;4.47;;;;;;;15.40;37.98;94404.25;5032746;28;20504;-72
2023/03/14 11:35:15;;;;;;;4.50;4.10;;;;;;;15.54;37.09;94397.41;5036457;28;20563;-73